9G5 weather

Royalton Airport
Gasport, New York, United States

Public forecast

Using degrees Fahrenheit for public forecast. Weather courtesy of forecast.io.

METAR (pilot weather report)

Closest report is Buffalo Niagara International Airport, 16.4 nm (30.4 km) SSW. Retrieved 2019/06/25 09:54 UTC (59 minutes ago):

KBUF 250954Z 22009KT 10SM BKN005 BKN025 OVC030 19/18 A2974 RMK AO2 CIG 003V009 SLP066 T01940183

TAF (pilot weather forecast)

Closest forecast is Buffalo Niagara International Airport, 16.4 nm (30.4 km) SSW. Retrieved 2019/06/25 06:30 UTC (4 hours ago):

TAF KBUF 250527Z 2506/2606 21010KT 6SM -RA SCT025 BKN050 FM250730 22012KT P6SM VCSH SCT007 BKN015 FM250900 24012KT 5SM BR BKN007 FM251100 24012KT P6SM BKN025 FM251400 24016G26KT P6SM BKN090 FM251800 24020G30KT P6SM SCT050 SCT100 FM252300 23012KT P6SM FEW250